Time;durP1;ratioP1;P1;durP2;ratioP2;P2;SDS_P1;SDS_P2;PMS_P1;PMS_P2;Temp;Humidity;BMP_temperature;BMP_pressure;BME280_temperature;BME280_humidity;BME280_pressure;Samples;Min_cycle;Max_cycle;Signal;HPM_P1;HPM_P2
2024/01/06 00:01:50;;;;;;;4.00;3.00;;;;;;;4.50;100.00;95462.78;5133074;27;20445;-54
2024/01/06 00:04:18;;;;;;;4.43;3.93;;;;;;;4.56;100.00;95472.34;5132864;27;20470;-54
2024/01/06 00:06:49;;;;;;;3.30;3.10;;;;;;;4.62;100.00;95458.31;5132840;27;20449;-55
2024/01/06 00:09:17;;;;;;;7.97;2.30;;;;;;;4.61;100.00;95461.97;5132586;27;20435;-53
2024/01/06 00:11:46;;;;;;;1.53;1.10;;;;;;;4.71;100.00;95464.00;5133076;27;20924;-55
2024/01/06 00:14:15;;;;;;;5.13;1.83;;;;;;;4.73;100.00;95468.00;5133142;27;20438;-55
2024/01/06 00:16:43;;;;;;;1.83;1.73;;;;;;;4.71;100.00;95483.19;5132923;27;20469;-54
2024/01/06 00:19:12;;;;;;;2.37;2.23;;;;;;;4.71;100.00;95464.81;5132732;27;20799;-54
2024/01/06 00:21:41;;;;;;;3.50;2.30;;;;;;;4.81;100.00;95449.28;5132410;27;20962;-55
2024/01/06 00:24:11;;;;;;;5.23;1.90;;;;;;;4.75;100.00;95473.84;5131140;27;20480;-55
2024/01/06 00:26:40;;;;;;;2.37;1.23;;;;;;;4.62;100.00;95483.75;5132797;27;20439;-55
2024/01/06 00:29:08;;;;;;;2.23;1.83;;;;;;;4.53;100.00;95485.91;5133112;27;20438;-55
2024/01/06 00:31:37;;;;;;;3.00;2.90;;;;;;;4.50;100.00;95487.16;5132952;27;20468;-55
2024/01/06 00:34:06;;;;;;;2.53;2.20;;;;;;;4.44;100.00;95477.59;5132908;27;20496;-55
2024/01/06 00:36:34;;;;;;;5.80;2.50;;;;;;;3.78;100.00;95482.22;5132544;27;20526;-55
2024/01/06 00:39:03;;;;;;;4.43;4.13;;;;;;;3.44;100.00;95467.94;5132089;27;20446;-55
2024/01/06 00:41:33;;;;;;;6.93;3.67;;;;;;;3.54;100.00;95478.69;5131750;27;20438;-54
2024/01/06 00:44:02;;;;;;;3.93;3.20;;;;;;;3.17;100.00;95437.88;5132816;27;20477;-54
2024/01/06 00:46:30;;;;;;;3.50;3.37;;;;;;;3.09;100.00;95490.53;5132818;27;20453;-54
2024/01/06 00:48:59;;;;;;;7.60;3.30;;;;;;;3.05;100.00;95484.13;5132539;27;20882;-54
2024/01/06 00:51:29;;;;;;;3.23;1.87;;;;;;;2.99;100.00;95470.09;5129251;28;20723;-54
2024/01/06 00:53:57;;;;;;;3.23;2.70;;;;;;;2.86;100.00;95496.41;5122209;28;20491;-55
2024/01/06 00:56:27;;;;;;;1.97;1.87;;;;;;;3.05;100.00;95492.00;5132266;28;20523;-55
2024/01/06 00:58:57;;;;;;;2.60;2.40;;;;;;;3.23;100.00;95478.91;5132421;27;20442;-55
2024/01/06 01:01:25;;;;;;;6.10;2.87;;;;;;;3.18;100.00;95466.47;5121453;28;20447;-55
2024/01/06 01:03:54;;;;;;;3.73;2.60;;;;;;;3.10;100.00;95458.09;5132323;27;20845;-55
2024/01/06 01:06:23;;;;;;;2.40;1.73;;;;;;;3.19;100.00;95475.09;5132157;28;20495;-55
2024/01/06 01:08:52;;;;;;;2.67;2.50;;;;;;;3.20;100.00;95471.47;5132866;27;20434;-55
2024/01/06 01:11:21;;;;;;;2.00;1.90;;;;;;;3.23;100.00;95476.28;5132151;27;20438;-54
2024/01/06 01:13:49;;;;;;;2.07;1.97;;;;;;;3.35;100.00;95478.94;5132233;27;20449;-55
2024/01/06 01:16:19;;;;;;;5.97;3.13;;;;;;;3.02;100.00;95463.63;5104481;28;20534;-55
2024/01/06 01:18:48;;;;;;;7.23;3.43;;;;;;;3.20;100.00;95467.03;5119005;27;20454;-54
2024/01/06 01:21:17;;;;;;;2.70;1.83;;;;;;;3.00;100.00;95463.03;5132156;28;21034;-55
2024/01/06 01:23:45;;;;;;;4.60;4.13;;;;;;;3.04;100.00;95469.44;5131333;28;20522;-55
2024/01/06 01:26:14;;;;;;;3.23;3.13;;;;;;;2.97;100.00;95471.34;5132293;27;20462;-54
2024/01/06 01:28:43;;;;;;;4.53;2.47;;;;;;;2.97;100.00;95461.66;5131609;27;20452;-54
2024/01/06 01:31:11;;;;;;;7.90;3.80;;;;;;;3.10;100.00;95463.34;5135359;27;20443;-54
2024/01/06 01:33:42;;;;;;;8.37;3.50;;;;;;;3.17;100.00;95454.38;5135327;27;21195;-54
2024/01/06 01:36:11;;;;;;;5.53;2.20;;;;;;;3.36;100.00;95464.84;5136064;27;20802;-54
2024/01/06 01:38:39;;;;;;;3.23;3.03;;;;;;;3.12;100.00;95466.53;5135338;27;20967;-54
2024/01/06 01:41:08;;;;;;;5.23;4.27;;;;;;;3.14;100.00;95465.28;5135694;27;20441;-54
2024/01/06 01:43:37;;;;;;;3.77;3.13;;;;;;;3.21;100.00;95465.22;5135732;27;20477;-54
2024/01/06 01:46:07;;;;;;;2.90;2.60;;;;;;;3.44;100.00;95454.06;5136092;27;20507;-54
2024/01/06 01:48:36;;;;;;;4.47;4.30;;;;;;;3.22;100.00;95417.06;5135279;27;20439;-54
2024/01/06 01:51:08;;;;;;;4.80;3.53;;;;;;;3.41;100.00;95457.13;5135649;27;20518;-54
2024/01/06 01:53:39;;;;;;;2.90;2.70;;;;;;;3.54;100.00;95449.09;5135576;27;20994;-54
2024/01/06 01:56:08;;;;;;;3.57;3.00;;;;;;;3.60;100.00;95442.94;5135738;27;20434;-54
2024/01/06 01:58:37;;;;;;;2.10;2.00;;;;;;;3.67;100.00;95449.69;5135383;27;20466;-54
2024/01/06 02:01:06;;;;;;;4.40;2.90;;;;;;;3.51;100.00;95450.34;5135205;27;20438;-54
2024/01/06 02:03:36;;;;;;;2.60;2.37;;;;;;;3.62;100.00;95446.94;5135410;27;21005;-56
2024/01/06 02:06:06;;;;;;;2.87;2.63;;;;;;;3.68;100.00;95430.34;5135428;27;20489;-54
2024/01/06 02:08:35;;;;;;;1.30;1.30;;;;;;;3.77;100.00;95438.66;5135118;27;20446;-54
2024/01/06 02:11:04;;;;;;;2.63;2.47;;;;;;;3.82;100.00;95434.34;5135261;27;20972;-54
2024/01/06 02:13:36;;;;;;;2.57;2.03;;;;;;;3.73;100.00;95424.44;5135041;27;20450;-54
2024/01/06 02:16:06;;;;;;;2.80;2.70;;;;;;;3.70;100.00;95433.53;5133771;27;20438;-54
2024/01/06 02:18:35;;;;;;;2.20;2.10;;;;;;;3.66;100.00;95421.91;5134789;27;20438;-54
2024/01/06 02:21:04;;;;;;;5.83;1.60;;;;;;;3.46;100.00;95424.00;5135188;27;20441;-54
2024/01/06 02:23:37;;;;;;;4.07;3.73;;;;;;;3.57;100.00;95431.09;5135379;27;20442;-54
2024/01/06 02:26:05;;;;;;;3.93;2.63;;;;;;;3.53;100.00;95426.53;5135698;27;20431;-54
2024/01/06 02:28:34;;;;;;;10.23;1.90;;;;;;;3.50;100.00;95419.09;5134837;27;20446;-54
2024/01/06 02:31:03;;;;;;;4.37;3.87;;;;;;;3.23;100.00;95429.13;5126845;27;20895;-54
2024/01/06 02:33:31;;;;;;;9.50;3.40;;;;;;;2.82;100.00;95366.19;5129855;27;20439;-54
2024/01/06 02:36:00;;;;;;;4.23;3.83;;;;;;;3.43;100.00;95411.34;5134954;27;20447;-54
2024/01/06 02:38:29;;;;;;;4.00;3.70;;;;;;;3.42;100.00;95417.59;5134563;27;20438;-54
2024/01/06 02:40:59;;;;;;;3.13;2.93;;;;;;;3.24;100.00;95424.72;5133987;27;20434;-54
2024/01/06 02:43:27;;;;;;;4.60;4.30;;;;;;;2.61;100.00;95350.97;5134271;27;20443;-54
2024/01/06 02:45:56;;;;;;;3.63;2.73;;;;;;;2.67;100.00;95412.88;5134750;27;20495;-54
2024/01/06 02:48:24;;;;;;;4.77;3.13;;;;;;;2.72;100.00;95421.69;5133796;27;20445;-54
2024/01/06 02:50:53;;;;;;;3.73;3.43;;;;;;;2.92;100.00;95422.25;5122527;27;20442;-54
2024/01/06 02:53:22;;;;;;;3.53;2.30;;;;;;;2.75;100.00;95415.19;5132794;27;20466;-54
2024/01/06 02:55:51;;;;;;;4.63;3.40;;;;;;;2.64;100.00;95421.16;5134848;27;20457;-54
2024/01/06 02:58:21;;;;;;;2.73;2.50;;;;;;;2.85;100.00;95407.63;5134253;27;20439;-54
2024/01/06 03:00:49;;;;;;;2.83;2.57;;;;;;;3.04;100.00;95411.84;5134773;27;20446;-54
2024/01/06 03:03:18;;;;;;;4.50;4.03;;;;;;;3.09;100.00;95419.81;5134497;27;20445;-55
2024/01/06 03:05:49;;;;;;;2.97;2.20;;;;;;;3.20;100.00;95406.00;5133834;27;20564;-54
2024/01/06 03:08:18;;;;;;;6.83;3.03;;;;;;;3.20;100.00;95395.53;5133911;27;20451;-54
2024/01/06 03:10:46;;;;;;;2.53;2.33;;;;;;;2.92;100.00;95332.44;5133730;27;20439;-54
2024/01/06 03:13:15;;;;;;;7.23;3.73;;;;;;;3.22;100.00;95398.72;5134238;27;20522;-53
2024/01/06 03:15:45;;;;;;;2.80;2.60;;;;;;;2.82;100.00;95348.69;5134275;27;20494;-54
2024/01/06 03:18:14;;;;;;;3.00;2.80;;;;;;;2.93;100.00;95396.88;5134048;27;20438;-54
2024/01/06 03:20:43;;;;;;;11.13;3.50;;;;;;;3.06;100.00;95402.75;5133561;27;20454;-54
2024/01/06 03:23:11;;;;;;;5.83;3.70;;;;;;;3.05;100.00;95413.44;5133914;27;20952;-54
2024/01/06 03:25:40;;;;;;;3.33;2.40;;;;;;;2.76;100.00;95377.56;5133655;27;20469;-53
2024/01/06 03:28:08;;;;;;;1.30;1.20;;;;;;;2.77;100.00;95371.28;5133597;27;20495;-53
2024/01/06 03:30:37;;;;;;;2.23;2.03;;;;;;;2.85;100.00;95389.31;5133205;27;20449;-53
2024/01/06 03:33:07;;;;;;;2.43;2.30;;;;;;;2.91;100.00;95384.00;5133572;27;20518;-53
2024/01/06 03:35:36;;;;;;;3.83;3.23;;;;;;;3.07;100.00;95386.03;5133319;27;20452;-54
2024/01/06 03:38:05;;;;;;;1.50;1.40;;;;;;;3.08;100.00;95371.94;5133874;27;20523;-55
2024/01/06 03:40:33;;;;;;;3.47;3.17;;;;;;;2.99;100.00;95372.44;5133778;27;20487;-55
2024/01/06 03:43:02;;;;;;;2.37;2.27;;;;;;;2.95;100.00;95358.19;5133565;27;20438;-53
2024/01/06 03:45:31;;;;;;;7.77;4.30;;;;;;;2.95;100.00;95385.16;5133672;27;20497;-54
2024/01/06 03:47:59;;;;;;;2.57;2.47;;;;;;;3.00;100.00;95374.84;5132250;27;20435;-53
2024/01/06 03:50:30;;;;;;;2.57;2.40;;;;;;;3.05;100.00;95374.16;5132838;27;20495;-54
2024/01/06 03:52:58;;;;;;;3.20;3.10;;;;;;;3.01;100.00;95375.66;5132257;27;20465;-53
2024/01/06 03:55:27;;;;;;;3.63;3.40;;;;;;;3.15;100.00;95383.09;5133179;27;20426;-54
2024/01/06 03:57:55;;;;;;;3.03;2.93;;;;;;;3.17;100.00;95378.44;5132448;27;20438;-55
2024/01/06 04:00:26;;;;;;;3.57;3.27;;;;;;;3.11;100.00;95376.69;5132508;27;20814;-54
2024/01/06 04:02:55;;;;;;;4.23;2.40;;;;;;;2.78;100.00;95357.19;5132294;27;20466;-54
2024/01/06 04:05:24;;;;;;;3.80;3.60;;;;;;;2.88;100.00;95371.38;5132539;27;20838;-54
2024/01/06 04:07:54;;;;;;;2.70;2.50;;;;;;;3.20;100.00;95374.56;5132603;27;20435;-54
2024/01/06 04:10:22;;;;;;;2.97;2.87;;;;;;;3.22;100.00;95380.38;5132510;27;20438;-54
2024/01/06 04:12:51;;;;;;;5.57;3.37;;;;;;;3.16;100.00;95387.31;5132722;27;20430;-54
2024/01/06 04:15:20;;;;;;;7.10;2.77;;;;;;;2.96;100.00;95392.00;5131555;27;20441;-54
2024/01/06 04:17:49;;;;;;;4.53;4.23;;;;;;;3.08;100.00;95365.88;5132147;27;20465;-54
2024/01/06 04:20:18;;;;;;;2.87;2.63;;;;;;;3.31;100.00;95375.66;5132359;27;20466;-54
2024/01/06 04:22:47;;;;;;;2.47;2.37;;;;;;;3.26;100.00;95373.69;5105891;27;20468;-54
2024/01/06 04:25:17;;;;;;;3.40;3.10;;;;;;;3.21;100.00;95379.59;5131940;27;20470;-54
2024/01/06 04:27:46;;;;;;;20.93;2.23;;;;;;;3.24;100.00;95380.97;5132476;27;20495;-54
2024/01/06 04:30:15;;;;;;;2.23;2.13;;;;;;;3.57;100.00;95385.75;5132353;27;20995;-54
2024/01/06 04:32:44;;;;;;;1.77;1.67;;;;;;;3.55;100.00;95365.00;5132257;27;20430;-54
2024/01/06 04:35:13;;;;;;;7.50;2.10;;;;;;;3.91;100.00;95387.66;5132286;27;20442;-54
2024/01/06 04:37:42;;;;;;;2.83;2.63;;;;;;;3.94;100.00;95378.53;5132240;27;20434;-54
2024/01/06 04:40:12;;;;;;;5.77;4.10;;;;;;;0.59;100.00;94951.50;5132061;27;20446;-54
2024/01/06 04:42:41;;;;;;;2.87;2.67;;;;;;;3.36;100.00;95389.69;5132378;27;20469;-54
2024/01/06 04:45:10;;;;;;;3.70;3.43;;;;;;;3.44;100.00;95384.09;5131830;27;20850;-54
2024/01/06 04:47:39;;;;;;;3.37;3.17;;;;;;;3.20;100.00;95378.00;5132245;27;20914;-55
2024/01/06 04:50:09;;;;;;;7.67;3.33;;;;;;;3.04;100.00;95380.41;5132201;27;20430;-55
2024/01/06 04:52:37;;;;;;;2.77;2.67;;;;;;;3.10;100.00;95385.59;5131157;28;20498;-55
2024/01/06 04:55:06;;;;;;;4.10;3.80;;;;;;;3.02;100.00;95390.31;5105946;28;20438;-55
2024/01/06 04:57:35;;;;;;;2.80;2.60;;;;;;;3.25;100.00;95384.38;5132352;27;20491;-55
2024/01/06 05:00:06;;;;;;;2.23;2.13;;;;;;;3.34;100.00;95359.50;5131856;28;20449;-55
2024/01/06 05:02:35;;;;;;;6.87;4.30;;;;;;;3.11;100.00;95378.53;5131732;27;20434;-55
2024/01/06 05:05:04;;;;;;;8.67;2.70;;;;;;;2.76;100.00;95380.94;5134208;27;20769;-55
2024/01/06 05:07:33;;;;;;;4.17;3.87;;;;;;;2.73;100.00;95385.84;5135787;27;20426;-55
2024/01/06 05:10:02;;;;;;;2.30;2.10;;;;;;;3.12;100.00;95386.16;5136831;27;20442;-55
2024/01/06 05:12:33;;;;;;;5.70;3.30;;;;;;;3.15;100.00;95382.28;5135470;27;21682;-55
2024/01/06 05:15:02;;;;;;;2.77;2.30;;;;;;;2.80;100.00;95402.25;5135869;27;20435;-55
2024/01/06 05:17:32;;;;;;;4.07;3.77;;;;;;;2.59;100.00;95298.84;5135621;27;20869;-55
2024/01/06 05:20:01;;;;;;;3.53;3.03;;;;;;;3.10;100.00;95369.06;5136000;27;20518;-55
2024/01/06 05:22:30;;;;;;;4.77;4.37;;;;;;;3.00;100.00;95369.59;5135841;27;20438;-54
2024/01/06 05:24:58;;;;;;;3.50;2.07;;;;;;;2.86;100.00;95328.88;5135987;27;20441;-54
2024/01/06 05:27:27;;;;;;;4.20;3.17;;;;;;;2.97;100.00;95340.44;5134983;27;20589;-54
2024/01/06 05:29:56;;;;;;;6.67;3.77;;;;;;;2.79;100.00;95288.13;5135376;27;20438;-55
2024/01/06 05:32:24;;;;;;;2.63;2.47;;;;;;;3.18;100.00;95374.00;5134777;27;20494;-55
2024/01/06 05:34:54;;;;;;;5.80;2.37;;;;;;;3.21;100.00;95386.66;5135840;27;20437;-55
2024/01/06 05:37:23;;;;;;;3.37;3.17;;;;;;;3.26;100.00;95389.41;5135786;27;21009;-54
2024/01/06 05:39:52;;;;;;;5.27;3.40;;;;;;;3.34;100.00;95375.97;5135687;27;20446;-55
2024/01/06 05:42:20;;;;;;;4.20;3.90;;;;;;;2.94;100.00;95367.06;5130613;27;20499;-55
2024/01/06 05:44:50;;;;;;;13.60;4.27;;;;;;;3.02;100.00;95358.91;5135366;27;20456;-56
2024/01/06 05:47:18;;;;;;;2.63;2.47;;;;;;;3.25;100.00;95363.44;5134486;27;20470;-56
2024/01/06 05:49:48;;;;;;;6.00;2.43;;;;;;;3.10;100.00;95332.41;5135441;27;20430;-55
2024/01/06 05:52:18;;;;;;;2.80;2.60;;;;;;;3.04;100.00;95349.00;5134431;27;20469;-55
2024/01/06 05:54:47;;;;;;;3.33;3.13;;;;;;;3.39;100.00;95368.25;5134886;27;20434;-55
2024/01/06 05:57:15;;;;;;;4.17;2.90;;;;;;;3.48;100.00;95372.19;5135175;27;20483;-55
2024/01/06 05:59:44;;;;;;;6.93;4.33;;;;;;;3.59;100.00;95370.63;5135532;27;20445;-55
2024/01/06 06:02:13;;;;;;;3.20;3.00;;;;;;;3.62;100.00;95362.28;5135613;27;20437;-55
2024/01/06 06:04:42;;;;;;;4.87;4.50;;;;;;;3.66;100.00;95358.19;5135409;27;20439;-55
2024/01/06 06:07:10;;;;;;;4.73;4.53;;;;;;;3.57;100.00;95362.97;5135548;27;20605;-55
2024/01/06 06:09:40;;;;;;;5.23;3.80;;;;;;;3.54;100.00;95360.78;5134704;27;20435;-55
2024/01/06 06:12:09;;;;;;;3.13;3.03;;;;;;;3.31;100.00;95300.50;5135014;27;20510;-55
2024/01/06 06:14:38;;;;;;;6.93;5.10;;;;;;;3.59;100.00;95358.28;5134071;27;20526;-55
2024/01/06 06:17:07;;;;;;;4.10;3.80;;;;;;;3.63;100.00;95359.44;5134537;27;20514;-56
2024/01/06 06:19:35;;;;;;;5.10;4.70;;;;;;;3.67;100.00;95365.03;5107338;27;20442;-55
2024/01/06 06:22:04;;;;;;;5.73;5.13;;;;;;;3.61;100.00;95345.78;5134186;27;20434;-55
2024/01/06 06:24:33;;;;;;;3.47;3.17;;;;;;;3.56;100.00;95364.00;5134062;27;20442;-55
2024/01/06 06:27:03;;;;;;;4.53;4.33;;;;;;;3.64;100.00;95347.16;5133976;27;20508;-55
2024/01/06 06:29:32;;;;;;;10.40;5.10;;;;;;;3.65;100.00;95343.50;5133997;27;20442;-55
2024/01/06 06:32:00;;;;;;;16.47;4.77;;;;;;;3.83;100.00;95354.69;5134354;27;20943;-57
2024/01/06 06:34:29;;;;;;;8.80;4.20;;;;;;;3.93;100.00;95345.47;5134319;27;20446;-55
2024/01/06 06:36:58;;;;;;;6.57;6.07;;;;;;;3.80;100.00;95334.19;5134028;27;20483;-56
2024/01/06 06:39:28;;;;;;;6.10;5.60;;;;;;;3.88;100.00;95347.97;5134416;27;20446;-55
2024/01/06 06:41:57;;;;;;;9.97;5.30;;;;;;;3.66;100.00;95292.69;5134170;27;20943;-55
2024/01/06 06:44:27;;;;;;;7.73;4.47;;;;;;;3.69;100.00;95297.47;5134639;27;20438;-56
2024/01/06 06:46:55;;;;;;;8.47;5.87;;;;;;;4.08;100.00;95349.25;5134220;27;20470;-56
2024/01/06 06:49:24;;;;;;;7.90;5.63;;;;;;;3.88;100.00;95306.03;5134420;27;20431;-56
2024/01/06 06:51:53;;;;;;;5.67;5.27;;;;;;;4.05;100.00;95339.19;5133848;27;20462;-56
2024/01/06 06:54:21;;;;;;;5.83;5.13;;;;;;;4.25;100.00;95326.53;5134053;27;20438;-55
2024/01/06 06:56:50;;;;;;;5.97;5.50;;;;;;;4.27;100.00;95334.19;5133932;27;20430;-55
2024/01/06 06:59:18;;;;;;;5.10;4.90;;;;;;;4.33;100.00;95334.06;5133910;27;20462;-56
2024/01/06 07:01:48;;;;;;;4.10;3.43;;;;;;;4.40;100.00;95336.59;5134262;27;20495;-55
2024/01/06 07:04:17;;;;;;;6.87;4.37;;;;;;;4.13;100.00;95303.97;5133564;27;20431;-56
2024/01/06 07:06:46;;;;;;;10.60;4.40;;;;;;;4.35;100.00;95323.34;5133044;27;20990;-55
2024/01/06 07:09:14;;;;;;;10.70;5.00;;;;;;;4.35;100.00;95336.47;5133983;27;20534;-55
2024/01/06 07:11:43;;;;;;;5.97;4.90;;;;;;;4.25;100.00;95333.63;5133893;27;20882;-55
2024/01/06 07:14:12;;;;;;;10.30;9.07;;;;;;;4.30;100.00;95337.13;5133251;27;20438;-55
2024/01/06 07:16:40;;;;;;;5.30;4.70;;;;;;;4.35;100.00;95336.47;5134344;27;20506;-56
2024/01/06 07:19:10;;;;;;;4.67;4.27;;;;;;;4.35;100.00;95332.00;5134054;27;20893;-55
2024/01/06 07:21:39;;;;;;;8.93;7.17;;;;;;;4.29;100.00;95342.63;5133797;27;20438;-55
2024/01/06 07:24:08;;;;;;;6.47;5.87;;;;;;;4.23;100.00;95327.78;5133679;27;20522;-56
2024/01/06 07:26:37;;;;;;;19.33;9.97;;;;;;;3.88;100.00;95346.16;5133234;27;20466;-55
2024/01/06 07:29:06;;;;;;;20.87;10.27;;;;;;;3.60;100.00;95344.19;5133135;27;20949;-55
2024/01/06 07:31:35;;;;;;;8.07;7.27;;;;;;;3.85;100.00;95342.16;5133318;27;20427;-55
2024/01/06 07:34:04;;;;;;;10.37;6.27;;;;;;;3.88;100.00;95350.59;5132663;27;20442;-56
2024/01/06 07:36:34;;;;;;;13.30;7.37;;;;;;;3.92;100.00;95341.25;5133149;27;20430;-55
2024/01/06 07:39:03;;;;;;;14.57;9.47;;;;;;;4.10;100.00;95339.31;5107269;27;20954;-56
2024/01/06 07:41:33;;;;;;;5.77;5.33;;;;;;;4.35;100.00;95341.72;5133444;27;20437;-56
2024/01/06 07:44:02;;;;;;;6.30;5.47;;;;;;;4.35;100.00;95341.72;5133557;27;20470;-56
2024/01/06 07:46:31;;;;;;;6.50;5.97;;;;;;;4.27;100.00;95306.16;5132275;27;20840;-55
2024/01/06 07:49:00;;;;;;;6.60;6.10;;;;;;;4.19;100.00;95285.50;5133014;27;20439;-55
2024/01/06 07:51:32;;;;;;;7.27;6.57;;;;;;;4.66;100.00;95336.06;5133222;27;20897;-55
2024/01/06 07:54:02;;;;;;;4.13;3.87;;;;;;;4.71;100.00;95336.16;5133571;27;20439;-56
2024/01/06 07:56:31;;;;;;;4.03;3.83;;;;;;;4.32;100.00;95258.22;5132238;27;20524;-56
2024/01/06 07:58:59;;;;;;;7.57;2.83;;;;;;;5.10;100.00;95334.56;5133320;27;20450;-56
2024/01/06 08:01:28;;;;;;;4.90;3.93;;;;;;;5.15;100.00;95324.16;5132714;27;20839;-56
2024/01/06 08:03:57;;;;;;;3.97;3.50;;;;;;;4.97;100.00;95333.03;5133146;27;20466;-55
2024/01/06 08:06:26;;;;;;;6.70;5.33;;;;;;;4.69;100.00;95290.97;5132826;27;20466;-55
2024/01/06 08:08:55;;;;;;;11.23;4.93;;;;;;;4.91;100.00;95333.94;5133214;27;20915;-55
2024/01/06 08:11:25;;;;;;;5.67;5.33;;;;;;;4.53;100.00;95262.06;5132857;27;20499;-55
2024/01/06 08:13:54;;;;;;;4.93;4.63;;;;;;;4.97;100.00;95324.34;5131977;27;20464;-55
2024/01/06 08:16:23;;;;;;;2.83;2.73;;;;;;;4.88;100.00;95310.00;5133154;27;20431;-56
2024/01/06 08:18:51;;;;;;;6.27;4.33;;;;;;;5.04;100.00;95335.50;5132706;27;20965;-56
2024/01/06 08:21:20;;;;;;;5.60;5.00;;;;;;;5.14;100.00;95331.25;5132729;27;20442;-55
2024/01/06 08:23:49;;;;;;;5.70;5.23;;;;;;;5.40;100.00;95329.06;5131517;27;20427;-55
2024/01/06 08:26:18;;;;;;;3.83;3.60;;;;;;;5.25;100.00;95323.53;5133157;27;20447;-55
2024/01/06 08:28:48;;;;;;;7.20;3.50;;;;;;;5.35;100.00;95331.59;5131546;27;20989;-56
2024/01/06 08:31:17;;;;;;;5.30;4.80;;;;;;;5.49;100.00;95331.06;5132765;27;20470;-57
2024/01/06 08:33:45;;;;;;;11.40;6.70;;;;;;;5.49;100.00;95315.31;5132746;27;20790;-55
2024/01/06 08:36:15;;;;;;;6.03;4.07;;;;;;;5.69;100.00;95328.78;5133060;27;20771;-56
2024/01/06 08:38:44;;;;;;;3.47;3.27;;;;;;;5.83;100.00;95331.91;5132040;27;20438;-56
2024/01/06 08:41:12;;;;;;;3.53;3.33;;;;;;;5.85;99.82;95326.44;5132191;27;20466;-56
2024/01/06 08:43:41;;;;;;;5.30;2.43;;;;;;;5.73;99.98;95305.44;5132417;27;20442;-55
2024/01/06 08:46:11;;;;;;;7.23;3.40;;;;;;;6.07;98.18;95312.31;5132002;27;20525;-55
2024/01/06 08:48:40;;;;;;;6.50;5.97;;;;;;;6.14;98.73;95315.59;5130545;27;20492;-56
2024/01/06 08:51:09;;;;;;;5.67;5.37;;;;;;;6.19;98.23;95296.44;5132604;27;20434;-56
2024/01/06 08:53:38;;;;;;;5.80;4.37;;;;;;;6.39;96.10;95309.88;5104429;28;20477;-56
2024/01/06 08:56:07;;;;;;;13.93;7.67;;;;;;;6.51;94.39;95301.84;5131514;28;20442;-56
2024/01/06 08:58:36;;;;;;;4.80;4.40;;;;;;;6.53;96.07;95291.91;5131722;28;20474;-56
2024/01/06 09:01:05;;;;;;;6.77;6.27;;;;;;;6.44;94.97;95282.81;5131818;27;20495;-56
2024/01/06 09:03:35;;;;;;;6.37;5.83;;;;;;;6.86;93.33;95283.84;5132202;28;20435;-55
2024/01/06 09:06:05;;;;;;;6.37;3.70;;;;;;;7.17;93.37;95283.16;5131926;28;20434;-55
2024/01/06 09:08:33;;;;;;;4.37;2.93;;;;;;;6.98;92.15;95271.38;5132445;27;20523;-55
2024/01/06 09:11:02;;;;;;;4.87;4.57;;;;;;;6.90;92.21;95279.69;5131292;28;20466;-55
2024/01/06 09:13:32;;;;;;;8.63;7.63;;;;;;;7.12;92.10;95267.28;5132646;27;20473;-55
2024/01/06 09:16:01;;;;;;;4.00;3.80;;;;;;;7.34;91.42;95252.19;5131780;28;20930;-56
2024/01/06 09:18:31;;;;;;;2.83;2.63;;;;;;;7.49;90.41;95262.88;5132054;28;20434;-55
2024/01/06 09:21:03;;;;;;;4.37;4.03;;;;;;;7.45;89.56;95259.16;5132067;28;20917;-56
2024/01/06 09:23:31;;;;;;;4.10;3.67;;;;;;;7.50;91.27;95253.94;5131999;27;20431;-56
2024/01/06 09:26:00;;;;;;;5.37;3.80;;;;;;;7.30;91.32;95251.13;5131633;28;20438;-55
2024/01/06 09:28:29;;;;;;;7.00;4.00;;;;;;;6.99;94.05;95246.59;5131468;28;20473;-56
2024/01/06 09:30:57;;;;;;;4.17;3.97;;;;;;;6.98;93.91;95239.75;5131422;28;20449;-56
2024/01/06 09:33:26;;;;;;;4.57;4.37;;;;;;;6.96;94.27;95234.72;5131523;28;20505;-55
2024/01/06 09:35:58;;;;;;;7.60;5.10;;;;;;;7.10;94.65;95229.84;5131767;27;20508;-56
2024/01/06 09:38:28;;;;;;;6.63;6.17;;;;;;;6.97;95.08;95235.50;5131905;28;20854;-56
2024/01/06 09:40:59;;;;;;;5.80;5.23;;;;;;;7.13;95.39;95234.63;5131622;28;20498;-56
2024/01/06 09:43:30;;;;;;;3.83;3.63;;;;;;;7.53;92.06;95221.78;5127502;28;20471;-56
2024/01/06 09:46:07;;;;;;;7.50;3.70;;;;;;;7.61;89.72;95228.44;5123108;28;20446;-56
2024/01/06 09:48:40;;;;;;;3.33;3.03;;;;;;;7.88;89.80;95223.06;5131066;28;20474;-56
2024/01/06 09:51:12;;;;;;;6.90;6.27;;;;;;;7.82;88.63;95214.31;5132574;27;20495;-56
2024/01/06 09:53:53;;;;;;;7.10;5.90;;;;;;;7.91;89.26;95199.63;5135586;27;20474;-56
2024/01/06 09:56:22;;;;;;;6.20;3.80;;;;;;;8.25;87.38;95200.06;5135579;27;20466;-56
2024/01/06 09:58:51;;;;;;;6.43;4.37;;;;;;;8.59;85.23;95200.50;5135235;27;20438;-56
2024/01/06 10:01:20;;;;;;;10.87;4.23;;;;;;;8.45;85.15;95186.97;5135415;27;20430;-56
2024/01/06 10:03:49;;;;;;;7.93;4.90;;;;;;;8.29;86.43;95180.06;5133069;27;20516;-56
2024/01/06 10:06:20;;;;;;;3.37;3.17;;;;;;;8.50;85.63;95173.78;5134752;27;20583;-56
2024/01/06 10:08:52;;;;;;;4.10;3.80;;;;;;;8.61;86.13;95162.19;5133613;27;20482;-56
2024/01/06 10:11:23;;;;;;;5.80;4.90;;;;;;;8.61;85.33;95162.19;5134470;27;20431;-56
2024/01/06 10:13:51;;;;;;;6.67;6.03;;;;;;;8.60;85.88;95141.34;5125080;27;20435;-56
2024/01/06 10:16:21;;;;;;;7.30;4.83;;;;;;;8.56;83.12;95142.91;5133436;27;20487;-57
2024/01/06 10:18:49;;;;;;;2.83;2.57;;;;;;;8.80;81.16;95141.38;5135082;27;20889;-56
2024/01/06 10:21:21;;;;;;;3.00;2.83;;;;;;;9.12;81.49;95125.28;5134925;27;20445;-56
2024/01/06 10:23:55;;;;;;;2.53;2.33;;;;;;;8.81;82.40;95109.41;5135026;27;20495;-57
2024/01/06 10:26:24;;;;;;;3.20;3.10;;;;;;;9.15;79.06;95119.47;5134019;27;20442;-56
2024/01/06 10:28:52;;;;;;;4.00;3.40;;;;;;;9.34;80.01;95113.38;5134958;27;20474;-56
2024/01/06 10:31:21;;;;;;;2.40;2.30;;;;;;;9.66;77.96;95110.44;5134659;27;21019;-55
2024/01/06 10:33:49;;;;;;;4.93;4.40;;;;;;;9.38;76.82;95053.59;5134574;27;20434;-56
2024/01/06 10:36:18;;;;;;;3.60;3.40;;;;;;;9.65;76.40;95105.38;5134095;27;20451;-56
2024/01/06 10:38:47;;;;;;;5.97;2.50;;;;;;;9.69;76.34;95086.06;5134318;27;20478;-56
2024/01/06 10:41:18;;;;;;;9.70;2.37;;;;;;;9.86;76.18;95094.50;5134273;27;20523;-56
2024/01/06 10:43:49;;;;;;;10.43;2.30;;;;;;;9.82;74.83;95092.63;5134834;27;20439;-56
2024/01/06 10:46:20;;;;;;;3.97;3.67;;;;;;;9.30;74.94;95061.28;5134105;27;20518;-56
2024/01/06 10:48:50;;;;;;;5.33;4.80;;;;;;;9.28;75.75;95088.00;5133881;27;20478;-57
2024/01/06 10:51:20;;;;;;;4.87;3.17;;;;;;;9.17;76.20;95082.97;5128166;27;20445;-56
2024/01/06 10:53:51;;;;;;;3.67;3.37;;;;;;;9.14;76.51;95059.69;5133767;27;20561;-57
2024/01/06 10:56:24;;;;;;;13.43;4.13;;;;;;;9.58;75.70;95066.78;5133586;27;20903;-56
2024/01/06 10:58:54;;;;;;;3.73;3.53;;;;;;;9.33;75.76;95061.56;5133982;27;20525;-56
2024/01/06 11:01:24;;;;;;;2.50;2.40;;;;;;;9.32;76.84;95075.03;5133898;27;20454;-56
2024/01/06 11:03:57;;;;;;;3.40;2.53;;;;;;;8.81;77.76;94982.56;5133696;27;21069;-56
2024/01/06 11:06:28;;;;;;;2.90;2.60;;;;;;;9.42;78.16;95056.50;5133849;27;20435;-56
2024/01/06 11:09:03;;;;;;;8.03;1.80;;;;;;;9.30;77.56;95011.84;5133590;27;20474;-56
2024/01/06 11:11:34;;;;;;;2.80;1.63;;;;;;;9.64;78.11;95042.97;5133865;27;20527;-56
2024/01/06 11:14:23;;;;;;;1.77;1.60;;;;;;;9.49;77.32;95035.84;5134040;27;20439;-56
2024/01/06 11:16:52;;;;;;;2.73;2.53;;;;;;;9.55;77.13;95050.66;5133831;27;20469;-56
2024/01/06 11:19:54;;;;;;;3.50;3.20;;;;;;;10.15;77.27;95041.69;5133603;27;20431;-55
2024/01/06 11:22:31;;;;;;;1.53;0.83;;;;;;;10.19;76.54;95014.38;5049678;28;20442;-55
2024/01/06 11:25:07;;;;;;;2.37;2.27;;;;;;;9.97;77.17;95032.50;5122117;27;20442;-56
2024/01/06 11:27:38;;;;;;;7.87;2.20;;;;;;;10.21;75.97;95024.72;5132357;27;20941;-56
2024/01/06 11:30:08;;;;;;;1.53;1.43;;;;;;;10.39;76.74;95020.66;5132870;27;20510;-55
2024/01/06 11:32:40;;;;;;;6.20;3.67;;;;;;;10.31;76.34;95022.03;5121001;27;20449;-55
2024/01/06 11:35:10;;;;;;;1.97;1.87;;;;;;;10.27;75.16;95010.38;5133309;27;20441;-55
2024/01/06 11:37:54;;;;;;;3.93;3.73;;;;;;;9.86;77.35;95007.16;5133407;27;20910;-55
2024/01/06 11:40:26;;;;;;;5.70;2.70;;;;;;;10.06;77.64;94998.31;5133002;27;20525;-55
2024/01/06 11:43:02;;;;;;;5.00;4.60;;;;;;;9.92;76.93;94995.44;5125254;27;20431;-56
2024/01/06 11:45:32;;;;;;;3.03;2.83;;;;;;;9.82;76.94;94974.31;5132623;27;20434;-57